Time;durP1;ratioP1;P1;durP2;ratioP2;P2;SDS_P1;SDS_P2;PMS_P1;PMS_P2;Temp;Humidity;BMP_temperature;BMP_pressure;BME280_temperature;BME280_humidity;BME280_pressure;Samples;Min_cycle;Max_cycle;Signal;HPM_P1;HPM_P2
2023/02/12 00:01:27;;;;;;;48.17;22.70;;;6.40;99.90;;;;;;5059042;28;20045;-83
2023/02/12 00:04:16;;;;;;;42.78;22.00;;;8.30;99.90;;;;;;5069441;28;20066;-86
2023/02/12 00:06:43;;;;;;;53.67;24.42;;;6.30;99.90;;;;;;5076958;28;20022;-80
2023/02/12 03:18:27;;;;;;;45.03;22.55;;;6.10;99.90;;;;;;3394405;22;20301;-81
2023/02/12 03:21:14;;;;;;;42.25;22.85;;;6.10;99.90;;;;;;5036867;28;20061;-80
2023/02/12 03:23:57;;;;;;;48.88;23.20;;;6.10;99.90;;;;;;5016392;28;20122;-83
2023/02/12 03:30:20;;;;;;;46.50;23.90;;;6.10;99.90;;;;;;5031967;28;20048;-81
2023/02/12 03:33:43;;;;;;;43.72;22.63;;;4.60;99.90;;;;;;5071824;23;20042;-82
2023/02/12 03:49:26;;;;;;;44.13;22.23;;;6.10;99.90;;;;;;5886800;22;20065;-83
2023/02/12 04:02:39;;;;;;;44.83;23.52;;;6.20;99.90;;;;;;5365288;22;20038;-81
2023/02/12 04:05:22;;;;;;;43.55;23.17;;;6.20;99.90;;;;;;5013848;28;20074;-85
2023/02/12 04:08:13;;;;;;;44.97;22.55;;;6.20;99.90;;;;;;5007656;28;20050;-83
2023/02/12 04:11:24;;;;;;;47.35;22.58;;;6.20;99.90;;;;;;5013889;28;20044;-81
2023/02/12 04:14:40;;;;;;;39.97;20.80;;;6.00;99.90;;;;;;5013407;28;20023;-82
2023/02/12 04:17:35;;;;;;;42.33;22.77;;;6.10;99.90;;;;;;5006215;28;20081;-81
2023/02/12 04:20:42;;;;;;;45.10;22.48;;;6.20;99.90;;;;;;5018607;28;20103;-84
2023/02/12 04:23:31;;;;;;;41.08;21.90;;;6.20;99.90;;;;;;5036071;28;20031;-83
2023/02/12 04:31:36;;;;;;;40.63;21.60;;;6.10;99.90;;;;;;5398010;23;20037;-82
2023/02/12 04:34:39;;;;;;;39.70;20.98;;;6.20;99.90;;;;;;5039567;28;20017;-81
2023/02/12 04:40:41;;;;;;;34.78;20.15;;;6.10;99.90;;;;;;5052199;28;20036;-81
2023/02/12 04:43:16;;;;;;;37.75;19.30;;;6.20;99.90;;;;;;5052787;28;20037;-82
2023/02/12 04:45:46;;;;;;;40.70;21.75;;;4.50;99.90;;;;;;5052855;28;20390;-82
2023/02/12 04:48:15;;;;;;;41.38;20.88;;;6.20;99.90;;;;;;5049685;28;20030;-83
2023/02/12 04:50:45;;;;;;;38.25;20.80;;;6.70;99.90;;;;;;5041304;28;20057;-82
2023/02/12 04:53:45;;;;;;;;;;;;;;;;;;;;;
2023/02/12 04:59:24;;;;;;;37.45;20.92;;;5.50;99.90;;;;;;5047869;28;20045;-82
2023/02/12 05:01:58;;;;;;;44.60;22.92;;;6.10;99.90;;;;;;5056131;28;20084;-81
2023/02/12 05:04:27;;;;;;;41.92;22.63;;;6.20;99.90;;;;;;5047378;28;20021;-82
2023/02/12 05:07:00;;;;;;;39.30;21.88;;;5.60;99.90;;;;;;5046525;28;20012;-83
2023/02/12 05:09:31;;;;;;;39.88;21.60;;;6.20;99.90;;;;;;5054993;28;20018;-83
2023/02/12 05:12:00;;;;;;;44.08;22.40;;;6.30;99.90;;;;;;5050842;28;20088;-82
2023/02/12 05:14:43;;;;;;;46.45;22.95;;;7.90;99.90;;;;;;5042533;28;20020;-84
2023/02/12 05:17:14;;;;;;;40.28;21.70;;;6.10;99.90;;;;;;5059354;28;20018;-82
2023/02/12 05:19:42;;;;;;;39.47;21.38;;;5.50;99.90;;;;;;5042600;28;20090;-83
2023/02/12 05:29:56;;;;;;;39.05;21.08;;;6.20;99.90;;;;;;5068413;22;20029;-82
2023/02/12 05:32:26;;;;;;;38.65;20.20;;;6.20;99.90;;;;;;5015143;28;20021;-83
2023/02/12 05:34:52;;;;;;;37.80;20.10;;;6.20;99.90;;;;;;5036992;23;20076;-86
2023/02/12 05:37:18;;;;;;;36.78;20.77;;;5.80;99.90;;;;;;5036677;28;20029;-85
2023/02/12 05:39:43;;;;;;;37.38;20.25;;;6.20;99.90;;;;;;5039154;28;20038;-88
2023/02/12 05:42:09;;;;;;;40.10;21.15;;;6.20;99.90;;;;;;5036583;28;20037;-86
2023/02/12 05:44:34;;;;;;;35.17;19.60;;;7.30;99.90;;;;;;5051556;28;20046;-86
2023/02/12 05:47:00;;;;;;;37.42;20.15;;;8.30;99.90;;;;;;5050645;28;20035;-86
2023/02/12 05:49:26;;;;;;;34.95;18.73;;;6.30;99.90;;;;;;5043844;28;20025;-86
2023/02/12 05:51:51;;;;;;;33.67;19.23;;;6.30;99.90;;;;;;5047778;28;20029;-87
2023/02/12 05:54:17;;;;;;;34.83;18.65;;;7.00;99.90;;;;;;5046902;28;20036;-88
2023/02/12 05:56:45;;;;;;;36.92;20.10;;;8.70;99.90;;;;;;5047893;28;20030;-88
2023/02/12 05:59:15;;;;;;;34.90;18.58;;;6.40;99.90;;;;;;5050872;28;20039;-86
2023/02/12 06:01:43;;;;;;;35.88;19.77;;;6.40;99.90;;;;;;5042725;28;20025;-88
2023/02/12 06:04:15;;;;;;;32.83;18.65;;;6.40;99.90;;;;;;5049837;28;20039;-87
2023/02/12 06:06:41;;;;;;;31.75;18.15;;;6.40;99.90;;;;;;5055012;28;20026;-86
2023/02/12 06:09:08;;;;;;;27.88;16.38;;;6.40;99.90;;;;;;5064675;28;20029;-86
2023/02/12 06:11:34;;;;;;;33.38;18.42;;;8.30;99.90;;;;;;5053203;28;20029;-85
2023/02/12 06:14:07;;;;;;;32.10;18.35;;;6.50;99.90;;;;;;5047259;28;20592;-87
2023/02/12 06:16:34;;;;;;;34.65;18.67;;;8.40;99.90;;;;;;5046188;28;20067;-86
2023/02/12 06:19:01;;;;;;;28.30;16.38;;;6.40;99.90;;;;;;5046815;28;20036;-88
2023/02/12 06:21:28;;;;;;;31.85;17.60;;;6.40;99.90;;;;;;5061769;28;20029;-86
2023/02/12 06:23:54;;;;;;;33.30;17.75;;;7.50;99.90;;;;;;5051279;28;20108;-89
2023/02/12 06:26:20;;;;;;;32.65;17.73;;;6.40;99.90;;;;;;5048850;28;20490;-87
2023/02/12 06:28:46;;;;;;;30.65;17.10;;;6.40;99.90;;;;;;5053381;28;20045;-88
2023/02/12 06:31:28;;;;;;;31.50;17.65;;;6.40;99.90;;;;;;5048806;28;20067;-88
2023/02/12 06:33:55;;;;;;;30.50;18.25;;;6.40;99.90;;;;;;5049330;28;20028;-86
2023/02/12 06:36:21;;;;;;;33.33;17.83;;;8.10;99.90;;;;;;5051985;28;20119;-89
2023/02/12 06:38:47;;;;;;;32.63;17.42;;;8.70;99.90;;;;;;5052840;28;20017;-86
2023/02/12 06:41:13;;;;;;;33.03;18.38;;;6.40;99.90;;;;;;5057194;28;20499;-88
2023/02/12 06:43:38;;;;;;;31.30;18.60;;;7.40;99.90;;;;;;5070502;28;20028;-89
2023/02/12 06:46:04;;;;;;;33.47;18.88;;;6.40;99.90;;;;;;5055343;28;20029;-87
2023/02/12 06:48:31;;;;;;;32.47;18.75;;;8.20;99.90;;;;;;5070153;28;20076;-89
2023/02/12 06:51:10;;;;;;;32.72;18.58;;;6.40;99.90;;;;;;5059479;28;20120;-85
2023/02/12 06:53:36;;;;;;;31.75;17.83;;;6.40;99.90;;;;;;5067288;28;20141;-84
2023/02/12 06:56:09;;;;;;;31.02;17.02;;;6.80;99.90;;;;;;5054408;28;20092;-87
2023/02/12 06:58:39;;;;;;;30.75;18.38;;;6.20;99.90;;;;;;5054840;28;20033;-87
2023/02/12 07:01:12;;;;;;;35.50;19.75;;;8.40;99.90;;;;;;5051566;28;20101;-85
2023/02/12 07:03:39;;;;;;;34.53;18.35;;;6.40;99.90;;;;;;5060907;28;20029;-88
2023/02/12 07:06:05;;;;;;;30.98;17.88;;;8.00;99.90;;;;;;5074295;28;20083;-86
2023/02/12 07:08:31;;;;;;;36.80;20.10;;;6.50;99.90;;;;;;5056176;28;20021;-89
2023/02/12 07:10:57;;;;;;;30.25;18.05;;;;;;;;;;5055303;28;20029;-87
2023/02/12 07:13:22;;;;;;;34.10;19.02;;;6.50;99.90;;;;;;5054901;28;20262;-86
2023/02/12 07:15:48;;;;;;;35.35;19.23;;;8.40;99.90;;;;;;5056256;28;20116;-88
2023/02/12 07:18:14;;;;;;;33.28;18.65;;;8.50;99.90;;;;;;5055643;28;20026;-85
2023/02/12 07:20:39;;;;;;;34.33;18.45;;;7.70;99.90;;;;;;5057496;28;20020;-84
2023/02/12 07:23:05;;;;;;;33.95;17.75;;;7.70;99.90;;;;;;5059820;28;20052;-88
2023/02/12 07:25:31;;;;;;;35.85;19.50;;;6.50;99.90;;;;;;5048648;28;20571;-85
2023/02/12 07:27:57;;;;;;;35.80;19.90;;;;;;;;;;5056244;28;20021;-87
2023/02/12 07:30:22;;;;;;;35.72;18.52;;;6.50;99.90;;;;;;5056390;28;20056;-86
2023/02/12 07:32:48;;;;;;;34.58;18.25;;;;;;;;;;5052803;28;20025;-86
2023/02/12 07:35:14;;;;;;;35.47;19.33;;;6.60;99.90;;;;;;5054593;28;20041;-85
2023/02/12 07:37:40;;;;;;;37.35;21.08;;;;;;;;;;5057670;28;20346;-83
2023/02/12 07:40:07;;;;;;;32.65;18.67;;;6.40;99.90;;;;;;5057563;28;20035;-83
2023/02/12 07:42:32;;;;;;;28.92;17.23;;;6.70;99.90;;;;;;5055779;28;20017;-84
2023/02/12 07:44:58;;;;;;;33.10;18.40;;;8.80;99.90;;;;;;5058610;28;20044;-86
2023/02/12 07:47:24;;;;;;;33.78;18.58;;;6.80;99.90;;;;;;5063188;28;20029;-86
2023/02/12 07:49:49;;;;;;;34.70;18.27;;;9.20;99.90;;;;;;5073133;28;20099;-88
2023/02/12 07:52:15;;;;;;;33.45;18.48;;;;;;;;;;5079942;28;20101;-85
2023/02/12 07:54:41;;;;;;;37.08;19.05;;;6.70;99.90;;;;;;5056968;28;20029;-85
2023/02/12 07:57:06;;;;;;;33.85;17.73;;;6.70;99.90;;;;;;5053970;28;20029;-86
2023/02/12 07:59:32;;;;;;;36.33;18.95;;;6.80;99.90;;;;;;5044066;28;20486;-84
2023/02/12 08:01:59;;;;;;;32.50;17.90;;;7.00;99.90;;;;;;5054817;28;20039;-87
2023/02/12 08:04:25;;;;;;;33.03;18.40;;;6.80;99.90;;;;;;5056953;28;20040;-87
2023/02/12 08:06:53;;;;;;;29.25;17.40;;;7.00;99.90;;;;;;5052895;28;20017;-88
2023/02/12 08:09:25;;;;;;;31.65;18.17;;;8.10;99.90;;;;;;5054298;28;20025;-90
2023/02/12 08:11:51;;;;;;;32.28;18.58;;;9.00;99.90;;;;;;5060067;28;20035;-85
2023/02/12 08:14:18;;;;;;;30.20;17.52;;;8.20;99.90;;;;;;5064007;28;20609;-87
2023/02/12 08:16:45;;;;;;;31.45;17.27;;;6.80;99.90;;;;;;5066617;28;20051;-86
2023/02/12 08:19:12;;;;;;;31.58;17.38;;;9.70;99.90;;;;;;5067150;28;20043;-85
2023/02/12 08:21:38;;;;;;;31.10;17.67;;;8.10;99.90;;;;;;5068326;28;20025;-88
2023/02/12 08:24:03;;;;;;;30.40;17.25;;;8.10;99.90;;;;;;5063910;28;20064;-88
2023/02/12 08:26:34;;;;;;;34.85;17.00;;;7.30;99.90;;;;;;5068943;28;20017;-88
2023/02/12 08:29:03;;;;;;;30.45;16.90;;;7.30;99.90;;;;;;5063186;28;20021;-88
2023/02/12 08:31:31;;;;;;;31.80;16.95;;;9.60;99.90;;;;;;5064665;28;20021;-86
2023/02/12 08:33:57;;;;;;;30.55;17.73;;;9.40;99.90;;;;;;5079147;28;20060;-85
2023/02/12 08:36:28;;;;;;;31.08;17.52;;;9.20;99.90;;;;;;5066621;28;20028;-86
2023/02/12 08:39:00;;;;;;;30.00;16.38;;;7.50;99.90;;;;;;5064832;28;20029;-85
2023/02/12 08:41:28;;;;;;;30.13;17.05;;;7.40;99.90;;;;;;5062989;28;20088;-86
2023/02/12 08:43:57;;;;;;;26.88;16.58;;;9.70;99.90;;;;;;5063028;28;20088;-88
2023/02/12 08:46:25;;;;;;;29.20;15.52;;;10.20;99.90;;;;;;5064033;28;20332;-83
2023/02/12 08:48:54;;;;;;;29.13;16.63;;;9.00;99.90;;;;;;5055540;28;20029;-86
2023/02/12 08:51:25;;;;;;;29.23;15.85;;;8.00;99.90;;;;;;5062432;28;20017;-85
2023/02/12 08:53:57;;;;;;;26.95;15.43;;;8.00;99.90;;;;;;5074656;28;20048;-84
2023/02/12 08:56:24;;;;;;;29.75;15.43;;;10.00;99.90;;;;;;5061504;28;20040;-85
2023/02/12 08:58:50;;;;;;;29.75;16.08;;;10.40;99.90;;;;;;5078439;28;20033;-87
2023/02/12 09:01:19;;;;;;;30.98;15.27;;;7.90;99.90;;;;;;5060423;28;20025;-87
2023/02/12 09:03:45;;;;;;;29.05;15.32;;;7.40;99.90;;;;;;5060693;28;20017;-86
2023/02/12 09:06:12;;;;;;;26.83;14.82;;;8.10;99.90;;;;;;5057647;28;20018;-86
2023/02/12 09:08:41;;;;;;;29.65;14.80;;;8.00;99.90;;;;;;5054767;28;20028;-83
2023/02/12 09:11:15;;;;;;;26.02;14.10;;;8.00;99.90;;;;;;5066864;28;20048;-85
2023/02/12 09:13:41;;;;;;;26.85;13.32;;;8.10;99.90;;;;;;5051318;28;20368;-83
2023/02/12 09:16:08;;;;;;;26.98;14.23;;;8.20;99.90;;;;;;5051955;28;20025;-83
2023/02/12 09:18:34;;;;;;;26.70;13.90;;;9.30;99.90;;;;;;5059546;28;20568;-84
2023/02/12 09:21:02;;;;;;;24.05;13.63;;;8.80;99.90;;;;;;5058540;28;20026;-82
2023/02/12 09:23:28;;;;;;;25.75;14.30;;;10.50;99.90;;;;;;5066487;28;20063;-86
2023/02/12 09:25:53;;;;;;;25.77;13.82;;;8.40;99.90;;;;;;5066217;28;20037;-84
2023/02/12 09:28:19;;;;;;;26.05;13.13;;;;;;;;;;5059847;28;20029;-86
2023/02/12 09:30:45;;;;;;;23.23;12.25;;;;;;;;;;5052944;28;20021;-86
2023/02/12 09:33:11;;;;;;;25.05;13.68;;;;;;;;;;5066026;28;20021;-84
2023/02/12 09:35:38;;;;;;;26.25;13.80;;;8.50;99.90;;;;;;5049593;28;20496;-86
2023/02/12 09:38:05;;;;;;;25.77;13.25;;;10.50;99.90;;;;;;5046734;28;20029;-83
2023/02/12 09:41:00;;;;;;;27.30;13.73;;;8.60;99.90;;;;;;5050526;28;20025;-88
2023/02/12 09:43:41;;;;;;;28.02;14.88;;;8.70;99.90;;;;;;5064366;28;20021;-86
2023/02/12 09:46:19;;;;;;;24.17;13.07;;;8.80;99.90;;;;;;5053476;28;20028;-85
2023/02/12 09:49:13;;;;;;;25.13;13.35;;;8.90;99.90;;;;;;5049961;28;20053;-84
2023/02/12 09:51:42;;;;;;;26.00;13.73;;;9.10;99.90;;;;;;5062879;28;20215;-86
2023/02/12 09:54:17;;;;;;;26.63;14.15;;;9.00;99.90;;;;;;5048538;28;20037;-87
2023/02/12 09:56:48;;;;;;;24.17;13.23;;;11.20;99.90;;;;;;5039888;28;20059;-84
2023/02/12 09:59:44;;;;;;;26.33;13.90;;;9.10;99.90;;;;;;5042078;28;20037;-86
2023/02/12 10:02:21;;;;;;;24.30;13.55;;;11.20;99.90;;;;;;5030042;28;20094;-88
2023/02/12 10:04:48;;;;;;;23.58;12.35;;;9.30;99.90;;;;;;5041827;28;20045;-86
2023/02/12 10:07:44;;;;;;;24.15;12.82;;;9.30;99.90;;;;;;5040206;28;21119;-86
2023/02/12 10:10:44;;;;;;;26.85;12.05;;;9.30;99.90;;;;;;5042925;28;20029;-87
2023/02/12 10:13:36;;;;;;;24.00;11.90;;;9.30;99.90;;;;;;5059318;28;20060;-85
2023/02/12 10:16:13;;;;;;;19.95;10.85;;;9.30;99.90;;;;;;5045869;28;20262;-84
2023/02/12 10:19:19;;;;;;;21.13;10.40;;;9.20;99.90;;;;;;5048603;28;20025;-86
2023/02/12 10:21:57;;;;;;;21.95;11.35;;;9.20;99.90;;;;;;5039191;28;20025;-84
2023/02/12 10:24:48;;;;;;;25.13;13.63;;;9.20;99.90;;;;;;5072091;28;20025;-89
2023/02/12 10:27:15;;;;;;;;;;;9.30;99.90;;;;;;5056588;28;20474;-86
2023/02/12 10:29:43;;;;;;;22.48;11.95;;;9.20;99.90;;;;;;5046794;28;19928;-85
2023/02/12 10:32:14;;;;;;;24.67;12.65;;;11.30;99.90;;;;;;5064136;28;20033;-84
2023/02/12 10:34:41;;;;;;;25.73;11.65;;;9.20;99.90;;;;;;5050798;28;20514;-83
2023/02/12 10:37:16;;;;;;;26.35;11.88;;;9.20;99.90;;;;;;5046085;28;20033;-87
2023/02/12 10:39:49;;;;;;;26.40;12.52;;;9.10;99.90;;;;;;5041543;28;20028;-85
2023/02/12 10:42:26;;;;;;;20.95;10.55;;;9.10;99.90;;;;;;5046184;28;20056;-87
2023/02/12 10:44:52;;;;;;;25.08;12.13;;;;;;;;;;5062951;28;20061;-88
2023/02/12 10:47:20;;;;;;;24.95;11.40;;;9.10;99.90;;;;;;5053670;28;20032;-87
2023/02/12 10:49:54;;;;;;;26.70;12.75;;;11.10;99.90;;;;;;5046752;28;20088;-86
2023/02/12 10:52:53;;;;;;;23.70;12.52;;;9.20;99.90;;;;;;5043957;28;20030;-87
2023/02/12 10:55:28;;;;;;;24.98;12.32;;;9.20;99.90;;;;;;5053817;28;20049;-86
2023/02/12 10:57:55;;;;;;;29.70;13.05;;;9.20;99.90;;;;;;5039258;28;20496;-86
2023/02/12 11:00:30;;;;;;;27.35;12.32;;;9.20;99.90;;;;;;5048918;28;20040;-86
2023/02/12 11:03:03;;;;;;;24.25;12.00;;;8.20;99.90;;;;;;5050896;28;20518;-87
2023/02/12 11:05:30;;;;;;;22.60;12.27;;;9.30;99.90;;;;;;5042639;28;20146;-86
2023/02/12 11:07:56;;;;;;;22.10;11.55;;;9.30;99.90;;;;;;5039285;28;20499;-85
2023/02/12 11:10:30;;;;;;;22.73;11.23;;;9.30;99.90;;;;;;5042383;28;20029;-88
2023/02/12 11:12:58;;;;;;;22.95;11.90;;;9.30;99.90;;;;;;5043277;28;20041;-88
2023/02/12 11:15:25;;;;;;;20.13;10.52;;;9.30;99.90;;;;;;5046860;28;20033;-87
2023/02/12 11:18:03;;;;;;;20.58;10.45;;;9.30;99.90;;;;;;5045001;28;20029;-83
2023/02/12 11:20:40;;;;;;;20.02;10.10;;;9.40;99.90;;;;;;5063841;28;20029;-86
2023/02/12 11:23:31;;;;;;;19.88;10.27;;;9.40;99.90;;;;;;5045086;28;20034;-88
2023/02/12 11:26:04;;;;;;;17.65;9.05;;;9.20;99.90;;;;;;5046890;28;20029;-87
2023/02/12 11:28:32;;;;;;;19.23;9.73;;;9.20;99.90;;;;;;5049152;28;20025;-87
2023/02/12 11:31:12;;;;;;;16.23;8.98;;;9.30;99.90;;;;;;5059995;28;20040;-88
2023/02/12 11:34:05;;;;;;;20.27;9.73;;;;;;;;;;5047305;28;20040;-88
2023/02/12 11:36:35;;;;;;;18.35;9.38;;;9.40;99.90;;;;;;5048551;28;20033;-87
2023/02/12 11:39:00;;;;;;;18.75;9.50;;;10.30;99.90;;;;;;5052134;28;20117;-88
2023/02/12 11:41:35;;;;;;;18.88;9.25;;;;;;;;;;5039747;28;20057;-87
2023/02/12 11:44:10;;;;;;;19.48;10.63;;;9.30;99.90;;;;;;5063719;28;20834;-87
2023/02/12 11:46:37;;;;;;;17.17;9.93;;;9.30;99.90;;;;;;5055821;28;20467;-84
2023/02/12 11:49:05;;;;;;;17.20;9.65;;;9.80;99.90;;;;;;5047855;28;20029;-83
2023/02/12 11:51:31;;;;;;;19.42;9.65;;;11.40;99.90;;;;;;5048359;28;20110;-87
2023/02/12 11:54:01;;;;;;;17.10;9.95;;;9.50;99.90;;;;;;5050192;28;20024;-86
2023/02/12 11:56:44;;;;;;;17.42;10.00;;;9.50;99.90;;;;;;5048730;28;20029;-87
2023/02/12 11:59:19;;;;;;;19.67;9.93;;;9.50;99.90;;;;;;5038166;28;20036;-85
2023/02/12 12:01:47;;;;;;;20.70;10.73;;;9.60;99.90;;;;;;5042235;28;20029;-87
2023/02/12 12:04:16;;;;;;;21.20;10.73;;;9.60;99.90;;;;;;5040809;28;20025;-85
2023/02/12 12:06:55;;;;;;;19.83;10.65;;;9.70;99.90;;;;;;5045177;28;20437;-86
2023/02/12 12:09:36;;;;;;;20.35;11.70;;;11.70;99.90;;;;;;5050979;28;20032;-85
2023/02/12 12:12:20;;;;;;;18.25;10.88;;;9.80;99.90;;;;;;5046591;28;20047;-86
2023/02/12 12:20:57;;;;;;;17.42;10.18;;;10.00;99.90;;;;;;5049260;28;20048;-85
2023/02/12 12:23:45;;;;;;;16.92;9.48;;;9.80;99.90;;;;;;5066818;28;20024;-87
2023/02/12 12:26:22;;;;;;;19.65;10.50;;;9.90;99.90;;;;;;5049073;28;20064;-83
2023/02/12 12:28:57;;;;;;;19.10;10.48;;;;;;;;;;5049781;28;20021;-84
2023/02/12 12:31:42;;;;;;;19.45;11.07;;;;;;;;;;5056839;28;20433;-84
2023/02/12 12:34:09;;;;;;;17.05;9.95;;;;;;;;;;5040898;28;20030;-84
2023/02/12 12:36:47;;;;;;;20.02;10.93;;;;;;;;;;5056697;28;20071;-84
2023/02/12 12:39:26;;;;;;;17.92;10.68;;;10.00;99.90;;;;;;5069926;28;20029;-84
2023/02/12 12:42:11;;;;;;;18.27;10.02;;;;;;;;;;5056274;28;20033;-83
2023/02/12 12:44:40;;;;;;;19.52;9.80;;;;;;;;;;5058450;28;20025;-84
2023/02/12 12:47:32;;;;;;;18.80;10.18;;;9.90;99.90;;;;;;5051839;28;20021;-87
2023/02/12 12:50:11;;;;;;;20.83;10.65;;;9.90;99.90;;;;;;5050230;28;20029;-86
2023/02/12 12:52:57;;;;;;;18.27;9.90;;;10.00;99.90;;;;;;5047889;28;20611;-84
2023/02/12 12:55:45;;;;;;;17.80;9.93;;;10.00;99.90;;;;;;5050359;28;20123;-83
2023/02/12 12:58:41;;;;;;;18.05;9.90;;;10.10;99.90;;;;;;5055297;28;20023;-86
2023/02/12 13:01:16;;;;;;;17.27;9.02;;;10.10;99.90;;;;;;5086723;28;20033;-82
2023/02/12 13:04:04;;;;;;;16.13;9.88;;;10.30;99.90;;;;;;5060806;28;20025;-86
2023/02/12 13:06:54;;;;;;;17.85;10.27;;;10.40;99.90;;;;;;5051070;28;20027;-87
2023/02/12 13:09:37;;;;;;;18.77;10.75;;;10.40;99.90;;;;;;5067883;28;20029;-84
2023/02/12 13:12:15;;;;;;;19.83;11.38;;;10.40;99.90;;;;;;5050108;28;20111;-87
2023/02/12 13:14:48;;;;;;;15.70;9.60;;;10.40;99.90;;;;;;5050551;28;20029;-87
2023/02/12 13:17:40;;;;;;;15.70;9.38;;;11.00;99.90;;;;;;5048167;28;20510;-85
2023/02/12 13:20:21;;;;;;;13.02;7.68;;;11.60;99.90;;;;;;5050572;28;20029;-84
2023/02/12 13:23:03;;;;;;;;;;;10.80;99.90;;;;;;5055637;28;20033;-88
2023/02/12 13:25:55;;;;;;;13.15;7.72;;;10.90;99.90;;;;;;5062405;28;21293;-85
2023/02/12 13:28:42;;;;;;;11.25;7.30;;;10.80;99.90;;;;;;5044047;28;20507;-85
2023/02/12 13:31:12;;;;;;;13.85;8.20;;;10.80;99.90;;;;;;5049867;28;20098;-84
2023/02/12 13:34:01;;;;;;;;;;;9.00;99.90;;;;;;5048388;28;20025;-84
2023/02/12 13:36:27;;;;;;;13.73;7.57;;;;;;;;;;5041759;28;19916;-83
2023/02/12 13:39:03;;;;;;;12.48;8.20;;;11.10;99.90;;;;;;5043609;28;20093;-80
2023/02/12 13:41:29;;;;;;;12.48;7.65;;;11.00;99.90;;;;;;5061106;28;20025;-86
2023/02/12 13:44:27;;;;;;;13.23;7.90;;;11.30;99.90;;;;;;5062281;28;20024;-86
2023/02/12 13:47:26;;;;;;;12.45;7.93;;;11.10;99.90;;;;;;5056474;28;20135;-83
2023/02/12 13:50:47;;;;;;;12.02;7.38;;;11.20;99.90;;;;;;5057350;28;20021;-87
2023/02/12 13:53:25;;;;;;;10.75;6.72;;;11.20;99.90;;;;;;5022068;28;20093;-83
2023/02/12 13:56:21;;;;;;;11.75;6.93;;;11.20;99.90;;;;;;5051697;28;20563;-84
2023/02/12 13:58:50;;;;;;;11.02;6.82;;;11.10;99.90;;;;;;5053731;28;20048;-85
2023/02/12 14:01:45;;;;;;;9.70;6.45;;;11.00;99.90;;;;;;5047306;28;20031;-86
2023/02/12 14:04:23;;;;;;;11.40;6.57;;;11.00;99.90;;;;;;5056427;28;20041;-85
2023/02/12 14:07:06;;;;;;;9.35;5.68;;;11.00;99.90;;;;;;5052704;28;20032;-86
2023/02/12 14:09:52;;;;;;;8.45;5.22;;;11.10;99.90;;;;;;5061008;28;20084;-84
2023/02/12 14:12:32;;;;;;;10.27;5.47;;;14.40;99.90;;;;;;5072719;28;20033;-85
2023/02/12 14:15:07;;;;;;;8.90;5.60;;;10.80;99.90;;;;;;5054921;28;20026;-86
2023/02/12 14:17:33;;;;;;;8.25;5.07;;;;;;;;;;5050085;28;20034;-87
2023/02/12 14:20:22;;;;;;;9.02;5.18;;;10.70;99.90;;;;;;5063723;28;20032;-86
2023/02/12 14:22:48;;;;;;;8.02;4.80;;;;;;;;;;5063710;28;20021;-83
2023/02/12 14:25:14;;;;;;;7.22;4.65;;;;;;;;;;5062712;28;20035;-86
2023/02/12 14:28:10;;;;;;;8.88;4.90;;;10.40;99.90;;;;;;5051100;28;20490;-83
2023/02/12 14:30:39;;;;;;;7.78;5.07;;;10.20;99.90;;;;;;5054903;28;20021;-86
2023/02/12 14:33:25;;;;;;;7.15;4.88;;;10.10;99.90;;;;;;5049804;28;20079;-84
2023/02/12 14:36:29;;;;;;;8.27;4.70;;;10.00;99.90;;;;;;5052286;28;20025;-87
2023/02/12 14:39:02;;;;;;;8.88;4.68;;;10.00;99.90;;;;;;5057540;28;20049;-88
2023/02/12 14:41:41;;;;;;;6.63;4.68;;;9.90;99.90;;;;;;5047796;28;20028;-84
2023/02/12 14:44:16;;;;;;;7.40;4.60;;;;;;;;;;5051232;28;20029;-88
2023/02/12 14:46:57;;;;;;;5.97;3.95;;;9.80;99.90;;;;;;5058357;28;20021;-84
2023/02/12 14:49:41;;;;;;;8.35;4.40;;;9.90;99.90;;;;;;5064802;28;20025;-84
2023/02/12 14:52:17;;;;;;;5.45;3.75;;;10.20;99.90;;;;;;5064527;28;20064;-86
2023/02/12 14:54:59;;;;;;;6.78;3.90;;;12.10;99.90;;;;;;5059979;28;20063;-86
2023/02/12 14:57:39;;;;;;;8.07;4.13;;;10.00;99.90;;;;;;5083595;28;20040;-87
2023/02/12 15:00:17;;;;;;;5.93;3.65;;;10.10;99.90;;;;;;5078683;28;20039;-86
2023/02/12 15:02:51;;;;;;;6.43;3.75;;;10.10;99.90;;;;;;5054520;28;20032;-86
2023/02/12 15:05:28;;;;;;;6.32;3.67;;;10.20;99.90;;;;;;5062987;28;20031;-85
2023/02/12 15:08:26;;;;;;;5.35;3.50;;;10.10;99.90;;;;;;5054098;28;20251;-85
2023/02/12 15:11:07;;;;;;;5.85;3.63;;;10.20;99.90;;;;;;5052461;28;20033;-82
2023/02/12 15:13:33;;;;;;;;;;;10.30;99.90;;;;;;5046941;28;20021;-83
2023/02/12 15:16:08;;;;;;;7.47;4.47;;;10.30;99.90;;;;;;5055133;28;19916;-85
2023/02/12 15:18:39;;;;;;;11.88;4.97;;;10.30;99.90;;;;;;5071690;28;20040;-86
2023/02/12 15:21:05;;;;;;;8.18;4.75;;;;;;;;;;5054811;28;20025;-83
2023/02/12 15:23:43;;;;;;;8.60;5.57;;;10.30;99.90;;;;;;5065095;28;20078;-86
2023/02/12 15:26:21;;;;;;;9.48;5.75;;;10.30;99.90;;;;;;5057191;28;20037;-87
2023/02/12 15:28:50;;;;;;;9.73;5.57;;;10.30;99.90;;;;;;5053156;28;20037;-86
2023/02/12 15:31:18;;;;;;;9.00;5.75;;;10.20;99.90;;;;;;5051413;28;20028;-88
2023/02/12 15:33:47;;;;;;;9.32;5.50;;;10.30;99.90;;;;;;5060873;28;20013;-87
2023/02/12 15:36:18;;;;;;;9.40;4.85;;;10.30;99.90;;;;;;5048636;28;20026;-88
2023/02/12 15:38:49;;;;;;;7.15;4.57;;;10.20;99.90;;;;;;5050321;28;20124;-86
2023/02/12 15:41:30;;;;;;;9.18;5.22;;;;;;;;;;5056211;28;20037;-84
2023/02/12 15:43:56;;;;;;;8.98;5.03;;;;;;;;;;5065419;28;20037;-85
2023/02/12 15:46:22;;;;;;;7.35;4.70;;;10.10;99.90;;;;;;5056931;28;20093;-89
2023/02/12 15:48:48;;;;;;;8.25;5.00;;;;;;;;;;5074176;28;21124;-88
2023/02/12 15:51:37;;;;;;;8.15;4.60;;;10.10;99.90;;;;;;5061072;28;20030;-86
2023/02/12 15:54:06;;;;;;;8.07;4.90;;;10.10;99.90;;;;;;5057412;28;20502;-87
2023/02/12 15:56:35;;;;;;;8.10;4.57;;;10.10;99.90;;;;;;5049180;28;20065;-89
2023/02/12 15:59:02;;;;;;;8.23;4.70;;;10.00;99.90;;;;;;5054236;28;20040;-88
2023/02/12 16:01:31;;;;;;;7.28;4.15;;;11.20;99.90;;;;;;5061234;28;20033;-88
2023/02/12 16:04:06;;;;;;;7.75;4.47;;;13.20;99.90;;;;;;5056155;28;20055;-88
2023/02/12 16:06:35;;;;;;;7.65;4.20;;;9.80;99.90;;;;;;5059693;28;20021;-86
2023/02/12 16:09:27;;;;;;;7.18;4.10;;;9.80;99.90;;;;;;5059791;28;20924;-87
2023/02/12 16:11:56;;;;;;;6.35;4.00;;;9.70;99.90;;;;;;5068169;28;20025;-86
2023/02/12 16:14:39;;;;;;;7.25;4.35;;;9.70;99.90;;;;;;5052760;28;20029;-86
2023/02/12 16:17:24;;;;;;;6.40;3.85;;;9.60;99.90;;;;;;5056455;28;20141;-88
2023/02/12 16:20:00;;;;;;;6.90;4.10;;;9.50;99.90;;;;;;5058026;28;20029;-88
2023/02/12 16:22:37;;;;;;;6.97;3.92;;;9.50;99.90;;;;;;5056090;28;20542;-88
2023/02/12 16:25:12;;;;;;;7.20;4.60;;;9.50;99.90;;;;;;5050632;28;20032;-89
2023/02/12 16:27:39;;;;;;;8.20;4.40;;;9.50;99.90;;;;;;5047906;28;20025;-88
2023/02/12 16:30:24;;;;;;;9.32;4.57;;;9.50;99.90;;;;;;5059701;28;20021;-88
2023/02/12 16:32:49;;;;;;;7.90;4.90;;;9.50;99.90;;;;;;5050719;28;20029;-88
2023/02/12 16:35:15;;;;;;;11.68;5.68;;;11.00;99.90;;;;;;5051521;28;20097;-89
2023/02/12 16:37:46;;;;;;;9.40;5.40;;;9.40;99.90;;;;;;5053706;28;20047;-86
2023/02/12 16:40:12;;;;;;;9.63;6.30;;;11.80;99.90;;;;;;5062339;28;20093;-88
2023/02/12 16:42:50;;;;;;;8.98;5.45;;;9.40;99.90;;;;;;5054894;28;20437;-87
2023/02/12 16:45:25;;;;;;;9.68;5.63;;;9.50;99.90;;;;;;5058035;28;20033;-87
2023/02/12 16:47:58;;;;;;;10.30;5.65;;;9.40;99.90;;;;;;5065398;28;20021;-83
2023/02/12 16:50:28;;;;;;;10.80;6.20;;;9.20;99.90;;;;;;5062444;28;20505;-86
2023/02/12 16:53:07;;;;;;;9.57;5.95;;;9.20;99.90;;;;;;5063636;28;20048;-88
2023/02/12 16:55:35;;;;;;;11.68;6.18;;;9.50;99.90;;;;;;5079206;28;20029;-87
2023/02/12 16:58:01;;;;;;;8.35;5.60;;;;;;;;;;5058943;28;20120;-87
2023/02/12 17:00:27;;;;;;;10.88;6.28;;;9.00;99.90;;;;;;5052730;28;20032;-84
2023/02/12 17:02:56;;;;;;;11.90;6.03;;;9.00;99.90;;;;;;5071231;28;20091;-85
2023/02/12 17:05:22;;;;;;;9.73;6.07;;;9.10;99.90;;;;;;5064532;28;20029;-88
2023/02/12 17:07:48;;;;;;;11.80;6.38;;;8.90;99.90;;;;;;5059459;28;20024;-87
2023/02/12 17:10:16;;;;;;;9.82;6.18;;;8.80;99.90;;;;;;5062711;28;20017;-86
2023/02/12 17:12:46;;;;;;;12.60;6.93;;;8.90;99.90;;;;;;5080449;28;20025;-88
2023/02/12 17:15:23;;;;;;;11.18;6.93;;;8.80;99.90;;;;;;5052582;28;20060;-86
2023/02/12 17:17:49;;;;;;;14.82;7.63;;;11.20;99.90;;;;;;5061435;28;20040;-85
2023/02/12 17:20:17;;;;;;;11.60;7.13;;;8.70;99.90;;;;;;5061436;28;20029;-88
2023/02/12 17:22:54;;;;;;;12.35;7.68;;;8.70;99.90;;;;;;5054229;28;20503;-86
2023/02/12 17:25:22;;;;;;;14.38;7.88;;;;;;;;;;5064334;28;20059;-87
2023/02/12 17:27:49;;;;;;;11.40;7.70;;;8.50;99.90;;;;;;5061836;28;20021;-89
2023/02/12 17:30:18;;;;;;;15.07;8.32;;;12.60;99.90;;;;;;5059636;28;20045;-88